createdAt,value
2024-02-14T00:01:21.364Z,13.34
2024-02-14T00:07:07.546Z,13.32
2024-02-14T00:12:52.635Z,13.33
2024-02-14T00:18:36.354Z,13.31
2024-02-14T00:24:20.484Z,13.3
2024-02-14T00:30:04.550Z,13.32
2024-02-14T00:35:48.605Z,13.3
2024-02-14T00:41:38.397Z,13.31
2024-02-14T00:47:22.144Z,13.32
2024-02-14T00:53:06.228Z,13.31
2024-02-14T00:58:49.873Z,13.31
2024-02-14T01:04:33.611Z,13.3
2024-02-14T01:10:17.576Z,13.32
2024-02-14T01:16:01.263Z,13.33
2024-02-14T01:21:45.911Z,13.32
2024-02-14T01:27:29.781Z,13.32
2024-02-14T01:33:13.766Z,13.33
2024-02-14T01:38:58.812Z,13.35
2024-02-14T01:44:44.759Z,13.34
2024-02-14T01:50:29.382Z,13.35
2024-02-14T01:56:13.348Z,13.35
2024-02-14T02:01:57.428Z,13.35
2024-02-14T02:07:42.323Z,13.37
2024-02-14T02:13:25.922Z,13.36
2024-02-14T02:19:09.690Z,13.37
2024-02-14T02:24:54.304Z,13.37
2024-02-14T02:30:38.065Z,13.36
2024-02-14T02:36:21.729Z,13.37
2024-02-14T02:42:05.612Z,13.37
2024-02-14T02:47:49.721Z,13.37
2024-02-14T02:53:34.390Z,13.38
2024-02-14T02:59:18.201Z,13.38
2024-02-14T03:05:02.335Z,13.36
2024-02-14T03:10:46.784Z,13.38
2024-02-14T03:16:30.464Z,13.4
2024-02-14T03:22:14.309Z,13.4
2024-02-14T03:27:58.187Z,13.42
2024-02-14T03:33:41.957Z,13.43
2024-02-14T03:39:26.799Z,13.45
2024-02-14T03:45:11.121Z,13.5
2024-02-14T03:50:57.742Z,13.51
2024-02-14T03:56:41.478Z,13.48
2024-02-14T04:02:25.464Z,13.48
2024-02-14T04:08:09.955Z,13.5
2024-02-14T04:13:53.965Z,13.51
2024-02-14T04:19:37.620Z,13.54
2024-02-14T04:25:22.081Z,13.56
2024-02-14T04:31:05.645Z,13.53
2024-02-14T04:36:49.319Z,13.51
2024-02-14T04:42:33.037Z,13.53
2024-02-14T04:48:17.491Z,13.55
2024-02-14T04:54:02.024Z,13.56
2024-02-14T04:59:46.102Z,13.55
2024-02-14T05:05:29.785Z,13.56
2024-02-14T05:11:15.102Z,13.57
2024-02-14T05:17:00.212Z,13.56
2024-02-14T05:22:44.822Z,13.59
2024-02-14T05:28:30.404Z,13.6
2024-02-14T05:34:15.411Z,13.6
2024-02-14T05:40:00.470Z,13.61
2024-02-14T05:45:44.237Z,13.63
2024-02-14T05:51:28.928Z,13.64
2024-02-14T05:57:12.647Z,13.67
2024-02-14T06:02:56.441Z,13.65
2024-02-14T06:08:41.301Z,13.64
2024-02-14T06:14:25.094Z,13.65
2024-02-14T06:20:10.806Z,13.66
2024-02-14T06:25:54.875Z,13.68
2024-02-14T06:31:38.591Z,13.83
2024-02-14T06:37:22.514Z,13.88
2024-02-14T06:43:06.063Z,13.81
2024-02-14T06:48:49.717Z,13.76
2024-02-14T06:54:33.927Z,13.74
2024-02-14T07:00:18.681Z,13.74
2024-02-14T07:06:04.037Z,13.73
2024-02-14T07:11:50.051Z,13.78
2024-02-14T07:17:34.121Z,13.78
2024-02-14T07:23:19.773Z,13.77
2024-02-14T07:29:03.246Z,13.8
2024-02-14T07:34:47.306Z,13.87
2024-02-14T07:40:31.323Z,13.84
2024-02-14T07:46:17.153Z,13.86
2024-02-14T07:52:01.791Z,13.89
2024-02-14T07:57:45.853Z,13.92
2024-02-14T08:03:29.415Z,13.94
2024-02-14T08:09:13.274Z,13.95
2024-02-14T08:14:57.242Z,14.07
2024-02-14T08:20:41.299Z,14.07
2024-02-14T08:26:25.999Z,14.14
2024-02-14T08:32:10.407Z,14.2
2024-02-14T08:37:55.346Z,14.21
2024-02-14T08:43:44.327Z,14.26
2024-02-14T08:49:30.941Z,14.3
2024-02-14T08:55:15.448Z,14.32
2024-02-14T09:01:04.979Z,14.32
2024-02-14T09:06:57.462Z,14.33
2024-02-14T09:12:41.663Z,14.3
2024-02-14T09:18:25.432Z,14.39
2024-02-14T09:24:10.143Z,14.43
2024-02-14T09:29:59.972Z,14.5
2024-02-14T09:35:43.817Z,14.56
2024-02-14T09:41:30.715Z,14.65
2024-02-14T09:47:16.067Z,14.74
2024-02-14T09:53:03.582Z,14.88
2024-02-14T09:58:52.147Z,14.93
2024-02-14T10:04:36.003Z,14.95
2024-02-14T10:10:21.726Z,15.01
2024-02-14T10:16:05.661Z,14.99
2024-02-14T10:21:57.763Z,14.99
2024-02-14T10:27:41.770Z,15.05
2024-02-14T10:33:28.939Z,15.08
2024-02-14T10:39:14.484Z,15.14
2024-02-14T10:44:59.633Z,15.2
2024-02-14T10:50:45.560Z,15.19
2024-02-14T10:56:31.168Z,15.29
2024-02-14T11:02:17.679Z,15.4
2024-02-14T11:08:14.442Z,15.5
2024-02-14T11:13:58.503Z,15.54
2024-02-14T11:19:42.719Z,15.69
2024-02-14T11:25:29.040Z,15.89
2024-02-14T11:31:17.408Z,15.96
2024-02-14T11:37:01.157Z,16.03
2024-02-14T11:42:45.171Z,16.06
2024-02-14T11:48:29.672Z,16.09
2024-02-14T11:54:14.118Z,16.07
2024-02-14T11:59:58.835Z,16.11
2024-02-14T12:05:43.330Z,16.08
2024-02-14T12:11:27.773Z,16.09
2024-02-14T12:17:11.433Z,16.1
2024-02-14T12:22:55.166Z,16.21
2024-02-14T12:28:38.727Z,16.23
2024-02-14T12:34:24.915Z,16.18
2024-02-14T12:40:10.936Z,16.17
2024-02-14T12:45:54.673Z,16.2
2024-02-14T12:51:40.269Z,16.13
2024-02-14T12:57:25.031Z,16.28
2024-02-14T13:03:09.010Z,16.2
2024-02-14T13:08:57.241Z,16.17
2024-02-14T13:14:41.168Z,16.12
2024-02-14T13:20:25.147Z,16.18
2024-02-14T13:26:10.534Z,16.17
2024-02-14T13:31:54.202Z,16.13
2024-02-14T13:37:38.939Z,16.15
2024-02-14T13:43:22.872Z,16.12
2024-02-14T13:49:07.120Z,16.1
2024-02-14T13:54:51.376Z,16.1
2024-02-14T14:00:35.204Z,16.06
2024-02-14T14:06:19.365Z,16.08
2024-02-14T14:12:04.939Z,16.06
2024-02-14T14:17:49.051Z,16.01
2024-02-14T14:23:34.435Z,15.97
2024-02-14T14:29:18.474Z,15.97
2024-02-14T14:35:02.430Z,16.02
2024-02-14T14:40:47.346Z,16.01
2024-02-14T14:46:30.894Z,16.05
2024-02-14T14:52:14.462Z,16.03
2024-02-14T14:57:58.386Z,16.06
2024-02-14T15:03:42.333Z,16.16
2024-02-14T15:15:17.394Z,16.16
2024-02-14T15:21:01.358Z,16.12
2024-02-14T15:26:45.180Z,16.14
2024-02-14T15:32:30.020Z,16.15
2024-02-14T15:38:14.103Z,16.12
2024-02-14T15:43:58.665Z,16.08
2024-02-14T15:49:42.386Z,16.02
2024-02-14T15:55:26.102Z,15.93
2024-02-14T16:01:10.717Z,15.91
2024-02-14T16:06:55.620Z,15.91
2024-02-14T16:12:40.268Z,15.94
2024-02-14T16:18:23.838Z,15.91
2024-02-14T16:24:08.268Z,15.85
2024-02-14T16:29:52.109Z,15.83
2024-02-14T16:35:39.736Z,15.84
2024-02-14T16:41:24.079Z,15.82
2024-02-14T16:47:08.378Z,15.73
2024-02-14T16:52:51.994Z,15.7
2024-02-14T16:58:35.706Z,15.69
2024-02-14T17:04:20.221Z,15.71
2024-02-14T17:10:04.818Z,15.62
2024-02-14T17:15:48.538Z,15.63
2024-02-14T17:21:32.306Z,15.59
2024-02-14T17:27:15.859Z,15.54
2024-02-14T17:33:00.115Z,15.53
2024-02-14T17:38:44.518Z,15.51
2024-02-14T17:44:28.700Z,15.48
2024-02-14T17:50:12.641Z,15.46
2024-02-14T17:55:56.201Z,15.46
2024-02-14T18:01:40.027Z,15.45
2024-02-14T18:07:23.722Z,15.42
2024-02-14T18:13:08.756Z,15.41
2024-02-14T18:18:52.423Z,15.4
2024-02-14T18:24:37.003Z,15.45
2024-02-14T18:30:21.266Z,15.42
2024-02-14T18:36:05.664Z,15.39
2024-02-14T18:41:50.455Z,15.37
2024-02-14T18:47:34.653Z,15.35
2024-02-14T18:53:19.891Z,15.38
2024-02-14T18:59:04.533Z,15.35
2024-02-14T19:04:48.366Z,15.34
2024-02-14T19:10:32.003Z,15.32
2024-02-14T19:16:23.460Z,15.28
2024-02-14T19:22:10.874Z,15.3
2024-02-14T19:27:54.547Z,15.33
2024-02-14T19:33:38.178Z,15.32
2024-02-14T19:39:22.546Z,15.41
2024-02-14T19:45:07.907Z,15.35
2024-02-14T19:50:51.891Z,15.36
2024-02-14T19:56:35.682Z,15.33
2024-02-14T20:02:19.693Z,15.33
2024-02-14T20:08:03.566Z,15.32
2024-02-14T20:13:47.307Z,15.3
2024-02-14T20:19:30.976Z,15.29
2024-02-14T20:25:15.606Z,15.28
2024-02-14T20:30:59.567Z,15.29
2024-02-14T20:36:43.425Z,15.28
2024-02-14T20:42:27.410Z,15.27
2024-02-14T20:48:11.767Z,15.26
2024-02-14T20:53:57.574Z,15.3
2024-02-14T20:59:41.786Z,15.29
2024-02-14T21:05:25.694Z,15.31
2024-02-14T21:11:09.583Z,15.27
2024-02-14T21:16:53.309Z,15.28
2024-02-14T21:22:37.022Z,15.27
2024-02-14T21:28:20.719Z,15.27
2024-02-14T21:34:04.586Z,15.26
2024-02-14T21:39:50.060Z,15.41
2024-02-14T21:45:33.586Z,15.56
2024-02-14T21:51:17.238Z,15.45
2024-02-14T21:57:01.357Z,15.35
2024-02-14T22:02:45.931Z,15.34
2024-02-14T22:08:30.291Z,15.32
2024-02-14T22:14:14.868Z,15.48
2024-02-14T22:19:59.008Z,15.47
2024-02-14T22:25:42.981Z,15.42
2024-02-14T22:31:26.766Z,15.36
2024-02-14T22:37:10.559Z,15.36
2024-02-14T22:42:54.246Z,15.33
2024-02-14T22:48:39.240Z,15.35
2024-02-14T22:54:23.684Z,15.43
2024-02-14T23:00:08.855Z,15.46
2024-02-14T23:05:52.973Z,15.39
2024-02-14T23:11:41.665Z,15.4
2024-02-14T23:17:25.551Z,15.38
2024-02-14T23:23:09.650Z,15.33
2024-02-14T23:28:54.525Z,15.32
2024-02-14T23:34:39.222Z,15.29
2024-02-14T23:40:23.568Z,15.29
2024-02-14T23:46:08.345Z,15.3
2024-02-14T23:51:51.797Z,15.3
2024-02-14T23:57:35.690Z,15.28
